sensor_id;sensor_type;location;lat;lon;timestamp;temperature;humidity
23081;DHT22;11708;50.570;8.532;2023-02-26T00:02:17;0.20;99.90
23081;DHT22;11708;50.570;8.532;2023-02-26T00:04:42;0.20;99.90
23081;DHT22;11708;50.570;8.532;2023-02-26T00:07:08;0.20;99.90
23081;DHT22;11708;50.570;8.532;2023-02-26T00:12:00;0.30;99.90
23081;DHT22;11708;50.570;8.532;2023-02-26T00:14:26;0.30;99.90
23081;DHT22;11708;50.570;8.532;2023-02-26T00:19:32;0.40;99.90
23081;DHT22;11708;50.570;8.532;2023-02-26T00:21:58;0.40;99.90
23081;DHT22;11708;50.570;8.532;2023-02-26T00:24:23;0.50;99.90
23081;DHT22;11708;50.570;8.532;2023-02-26T00:26:49;0.50;99.90
23081;DHT22;11708;50.570;8.532;2023-02-26T00:29:15;0.60;99.90
23081;DHT22;11708;50.570;8.532;2023-02-26T00:31:41;0.40;99.90
23081;DHT22;11708;50.570;8.532;2023-02-26T00:34:11;0.60;99.90
23081;DHT22;11708;50.570;8.532;2023-02-26T00:36:49;0.60;99.90
23081;DHT22;11708;50.570;8.532;2023-02-26T00:39:36;0.60;99.90
23081;DHT22;11708;50.570;8.532;2023-02-26T00:42:05;0.70;99.90
23081;DHT22;11708;50.570;8.532;2023-02-26T00:44:32;0.70;99.90
23081;DHT22;11708;50.570;8.532;2023-02-26T00:47:35;0.70;99.90
23081;DHT22;11708;50.570;8.532;2023-02-26T00:50:16;0.80;99.90
23081;DHT22;11708;50.570;8.532;2023-02-26T00:55:27;0.80;99.90
23081;DHT22;11708;50.570;8.532;2023-02-26T00:57:52;0.80;99.90
23081;DHT22;11708;50.570;8.532;2023-02-26T01:00:18;0.90;99.90
23081;DHT22;11708;50.570;8.532;2023-02-26T01:02:45;0.90;99.90
23081;DHT22;11708;50.570;8.532;2023-02-26T01:05:11;0.90;99.90
23081;DHT22;11708;50.570;8.532;2023-02-26T01:07:49;1.00;99.90
23081;DHT22;11708;50.570;8.532;2023-02-26T01:10:17;1.00;99.90
23081;DHT22;11708;50.570;8.532;2023-02-26T01:12:42;1.00;99.90
23081;DHT22;11708;50.570;8.532;2023-02-26T01:15:09;1.00;99.90
23081;DHT22;11708;50.570;8.532;2023-02-26T01:20:15;1.00;99.90
23081;DHT22;11708;50.570;8.532;2023-02-26T01:22:58;1.00;99.90
23081;DHT22;11708;50.570;8.532;2023-02-26T01:25:34;1.00;99.90
23081;DHT22;11708;50.570;8.532;2023-02-26T01:28:01;1.00;99.90
23081;DHT22;11708;50.570;8.532;2023-02-26T01:30:27;1.00;99.90
23081;DHT22;11708;50.570;8.532;2023-02-26T01:33:05;1.00;99.90
23081;DHT22;11708;50.570;8.532;2023-02-26T01:38:46;0.90;99.90
23081;DHT22;11708;50.570;8.532;2023-02-26T01:41:29;0.80;99.90
23081;DHT22;11708;50.570;8.532;2023-02-26T01:49:15;0.60;99.90
23081;DHT22;11708;50.570;8.532;2023-02-26T02:01:32;0.40;99.90
23081;DHT22;11708;50.570;8.532;2023-02-26T02:03:59;0.40;99.90
23081;DHT22;11708;50.570;8.532;2023-02-26T02:06:26;0.30;99.90
23081;DHT22;11708;50.570;8.532;2023-02-26T02:08:53;0.30;99.90
23081;DHT22;11708;50.570;8.532;2023-02-26T02:22:07;0.20;99.90
23081;DHT22;11708;50.570;8.532;2023-02-26T02:25:03;0.20;99.90
23081;DHT22;11708;50.570;8.532;2023-02-26T02:27:52;0.10;99.90
23081;DHT22;11708;50.570;8.532;2023-02-26T02:33:13;0.10;99.90
23081;DHT22;11708;50.570;8.532;2023-02-26T02:35:49;0.00;99.90
23081;DHT22;11708;50.570;8.532;2023-02-26T02:38:24;0.00;99.90
23081;DHT22;11708;50.570;8.532;2023-02-26T02:40:55;0.00;99.90
23081;DHT22;11708;50.570;8.532;2023-02-26T02:43:26;0.00;99.90
23081;DHT22;11708;50.570;8.532;2023-02-26T02:46:32;0.00;99.90
23081;DHT22;11708;50.570;8.532;2023-02-26T02:49:02;0.00;99.90
23081;DHT22;11708;50.570;8.532;2023-02-26T02:51:32;-0.10;99.90
23081;DHT22;11708;50.570;8.532;2023-02-26T02:54:09;-0.10;99.90
23081;DHT22;11708;50.570;8.532;2023-02-26T02:59:24;0.00;99.90
23081;DHT22;11708;50.570;8.532;2023-02-26T03:04:32;0.00;99.90
23081;DHT22;11708;50.570;8.532;2023-02-26T03:06:58;0.00;99.90
23081;DHT22;11708;50.570;8.532;2023-02-26T03:09:23;0.00;99.90
23081;DHT22;11708;50.570;8.532;2023-02-26T03:11:49;0.00;99.90
23081;DHT22;11708;50.570;8.532;2023-02-26T03:14:15;0.00;99.90
23081;DHT22;11708;50.570;8.532;2023-02-26T03:17:11;0.00;99.90
23081;DHT22;11708;50.570;8.532;2023-02-26T03:20:08;0.00;99.90
23081;DHT22;11708;50.570;8.532;2023-02-26T03:22:40;0.00;99.90
23081;DHT22;11708;50.570;8.532;2023-02-26T03:30:52;-0.10;99.90
23081;DHT22;11708;50.570;8.532;2023-02-26T03:33:34;-0.10;99.90
23081;DHT22;11708;50.570;8.532;2023-02-26T03:36:10;0.00;99.90
23081;DHT22;11708;50.570;8.532;2023-02-26T03:41:42;0.00;99.90
23081;DHT22;11708;50.570;8.532;2023-02-26T03:44:15;0.00;99.90
23081;DHT22;11708;50.570;8.532;2023-02-26T03:46:47;0.10;99.90
23081;DHT22;11708;50.570;8.532;2023-02-26T03:49:19;0.10;99.90
23081;DHT22;11708;50.570;8.532;2023-02-26T03:54:14;0.10;99.90
23081;DHT22;11708;50.570;8.532;2023-02-26T03:56:44;0.20;99.90
23081;DHT22;11708;50.570;8.532;2023-02-26T04:04:38;0.10;99.90
23081;DHT22;11708;50.570;8.532;2023-02-26T04:07:10;0.20;99.90
23081;DHT22;11708;50.570;8.532;2023-02-26T04:09:39;0.20;99.90
23081;DHT22;11708;50.570;8.532;2023-02-26T04:12:05;0.20;99.90
23081;DHT22;11708;50.570;8.532;2023-02-26T04:14:31;0.10;99.90
23081;DHT22;11708;50.570;8.532;2023-02-26T04:16:56;0.10;99.90
23081;DHT22;11708;50.570;8.532;2023-02-26T04:19:22;0.10;99.90
23081;DHT22;11708;50.570;8.532;2023-02-26T04:21:47;0.10;99.90
23081;DHT22;11708;50.570;8.532;2023-02-26T04:24:13;0.10;99.90
23081;DHT22;11708;50.570;8.532;2023-02-26T04:26:38;0.10;99.90
23081;DHT22;11708;50.570;8.532;2023-02-26T04:29:04;0.10;99.90
23081;DHT22;11708;50.570;8.532;2023-02-26T04:36:21;-0.20;99.90
23081;DHT22;11708;50.570;8.532;2023-02-26T04:38:47;0.00;99.90
23081;DHT22;11708;50.570;8.532;2023-02-26T04:41:12;0.00;99.90
23081;DHT22;11708;50.570;8.532;2023-02-26T04:43:38;-0.10;99.90
23081;DHT22;11708;50.570;8.532;2023-02-26T04:46:04;-0.10;99.90
23081;DHT22;11708;50.570;8.532;2023-02-26T04:50:55;-0.20;99.90
23081;DHT22;11708;50.570;8.532;2023-02-26T04:53:21;-0.20;99.90
23081;DHT22;11708;50.570;8.532;2023-02-26T04:55:47;-0.20;99.90
23081;DHT22;11708;50.570;8.532;2023-02-26T04:58:13;-0.30;99.90
23081;DHT22;11708;50.570;8.532;2023-02-26T05:00:38;-0.30;99.90
23081;DHT22;11708;50.570;8.532;2023-02-26T05:03:04;-0.30;99.90
23081;DHT22;11708;50.570;8.532;2023-02-26T05:10:23;-0.20;99.90
23081;DHT22;11708;50.570;8.532;2023-02-26T05:12:49;-0.20;99.90
23081;DHT22;11708;50.570;8.532;2023-02-26T05:15:14;-0.20;99.90
23081;DHT22;11708;50.570;8.532;2023-02-26T05:20:06;-0.10;99.90
23081;DHT22;11708;50.570;8.532;2023-02-26T05:22:38;-0.10;99.90
23081;DHT22;11708;50.570;8.532;2023-02-26T05:25:05;-0.10;99.90
23081;DHT22;11708;50.570;8.532;2023-02-26T05:27:31;-0.10;99.90
23081;DHT22;11708;50.570;8.532;2023-02-26T05:29:57;-0.10;99.90
23081;DHT22;11708;50.570;8.532;2023-02-26T05:32:22;-0.10;99.90
23081;DHT22;11708;50.570;8.532;2023-02-26T05:37:14;0.00;99.90
23081;DHT22;11708;50.570;8.532;2023-02-26T05:39:39;0.00;99.90
23081;DHT22;11708;50.570;8.532;2023-02-26T05:42:08;0.00;99.90
23081;DHT22;11708;50.570;8.532;2023-02-26T05:44:34;0.00;99.90
23081;DHT22;11708;50.570;8.532;2023-02-26T05:49:28;0.10;99.90
23081;DHT22;11708;50.570;8.532;2023-02-26T05:51:54;0.10;99.90
23081;DHT22;11708;50.570;8.532;2023-02-26T05:59:11;0.00;99.90
23081;DHT22;11708;50.570;8.532;2023-02-26T06:01:37;-0.20;99.90
23081;DHT22;11708;50.570;8.532;2023-02-26T06:04:04;0.00;99.90
23081;DHT22;11708;50.570;8.532;2023-02-26T06:06:30;0.00;99.90
23081;DHT22;11708;50.570;8.532;2023-02-26T06:08:55;-0.10;99.90
23081;DHT22;11708;50.570;8.532;2023-02-26T06:11:21;-0.10;99.90
23081;DHT22;11708;50.570;8.532;2023-02-26T06:13:47;-0.10;99.90
23081;DHT22;11708;50.570;8.532;2023-02-26T06:16:13;-0.10;99.90
23081;DHT22;11708;50.570;8.532;2023-02-26T06:25:56;-0.10;99.90
23081;DHT22;11708;50.570;8.532;2023-02-26T06:28:24;-0.20;99.90
23081;DHT22;11708;50.570;8.532;2023-02-26T06:30:51;-0.20;99.90
23081;DHT22;11708;50.570;8.532;2023-02-26T06:35:43;-0.20;99.90
23081;DHT22;11708;50.570;8.532;2023-02-26T06:38:08;-0.20;99.90
23081;DHT22;11708;50.570;8.532;2023-02-26T06:40:34;-0.20;99.90
23081;DHT22;11708;50.570;8.532;2023-02-26T06:43:00;-0.20;99.90
23081;DHT22;11708;50.570;8.532;2023-02-26T06:45:25;-0.20;99.90
23081;DHT22;11708;50.570;8.532;2023-02-26T06:47:51;-0.20;99.90
23081;DHT22;11708;50.570;8.532;2023-02-26T06:50:17;-0.20;99.90
23081;DHT22;11708;50.570;8.532;2023-02-26T06:55:09;-0.20;99.90
23081;DHT22;11708;50.570;8.532;2023-02-26T06:57:35;-0.20;99.90
23081;DHT22;11708;50.570;8.532;2023-02-26T07:00:00;-0.20;99.90
23081;DHT22;11708;50.570;8.532;2023-02-26T07:02:27;-0.20;99.90
23081;DHT22;11708;50.570;8.532;2023-02-26T07:04:52;-0.20;99.90
23081;DHT22;11708;50.570;8.532;2023-02-26T07:09:44;-0.20;99.90
23081;DHT22;11708;50.570;8.532;2023-02-26T07:12:09;-0.10;99.90
23081;DHT22;11708;50.570;8.532;2023-02-26T07:17:02;-0.10;99.90
23081;DHT22;11708;50.570;8.532;2023-02-26T07:19:27;-0.10;99.90
23081;DHT22;11708;50.570;8.532;2023-02-26T07:21:53;-0.10;99.90
23081;DHT22;11708;50.570;8.532;2023-02-26T07:24:20;0.00;99.90
23081;DHT22;11708;50.570;8.532;2023-02-26T07:26:45;0.00;99.90
23081;DHT22;11708;50.570;8.532;2023-02-26T07:29:11;0.00;99.90
23081;DHT22;11708;50.570;8.532;2023-02-26T07:36:29;0.10;99.90
23081;DHT22;11708;50.570;8.532;2023-02-26T07:41:20;0.20;99.90
23081;DHT22;11708;50.570;8.532;2023-02-26T07:43:46;0.30;99.90
23081;DHT22;11708;50.570;8.532;2023-02-26T07:46:12;0.30;99.90
23081;DHT22;11708;50.570;8.532;2023-02-26T07:48:38;0.40;99.90
23081;DHT22;11708;50.570;8.532;2023-02-26T07:51:03;0.40;99.90
23081;DHT22;11708;50.570;8.532;2023-02-26T07:53:31;0.50;99.90
23081;DHT22;11708;50.570;8.532;2023-02-26T07:55:57;0.60;99.90
23081;DHT22;11708;50.570;8.532;2023-02-26T07:58:22;0.60;99.90
23081;DHT22;11708;50.570;8.532;2023-02-26T08:05:40;0.70;99.90
23081;DHT22;11708;50.570;8.532;2023-02-26T08:15:23;0.90;99.90
23081;DHT22;11708;50.570;8.532;2023-02-26T08:17:51;1.00;99.90
23081;DHT22;11708;50.570;8.532;2023-02-26T08:20:17;1.00;99.90
23081;DHT22;11708;50.570;8.532;2023-02-26T08:25:09;1.20;99.90
23081;DHT22;11708;50.570;8.532;2023-02-26T08:27:34;1.20;99.90
23081;DHT22;11708;50.570;8.532;2023-02-26T08:32:26;1.40;99.90
23081;DHT22;11708;50.570;8.532;2023-02-26T08:37:18;1.50;99.90
23081;DHT22;11708;50.570;8.532;2023-02-26T08:39:46;1.50;99.90
23081;DHT22;11708;50.570;8.532;2023-02-26T08:42:12;1.50;99.90
23081;DHT22;11708;50.570;8.532;2023-02-26T08:44:41;1.60;99.90
23081;DHT22;11708;50.570;8.532;2023-02-26T08:47:06;1.60;99.90
23081;DHT22;11708;50.570;8.532;2023-02-26T08:49:32;1.60;99.90
23081;DHT22;11708;50.570;8.532;2023-02-26T08:51:58;1.40;99.90
23081;DHT22;11708;50.570;8.532;2023-02-26T08:54:23;1.60;99.90
23081;DHT22;11708;50.570;8.532;2023-02-26T08:56:49;1.60;99.90
23081;DHT22;11708;50.570;8.532;2023-02-26T08:59:15;1.60;99.90
23081;DHT22;11708;50.570;8.532;2023-02-26T09:04:07;1.60;99.90
23081;DHT22;11708;50.570;8.532;2023-02-26T09:06:32;1.60;99.90
23081;DHT22;11708;50.570;8.532;2023-02-26T09:11:24;1.70;99.90
23081;DHT22;11708;50.570;8.532;2023-02-26T09:18:41;1.80;99.90
23081;DHT22;11708;50.570;8.532;2023-02-26T09:23:33;1.90;99.90
23081;DHT22;11708;50.570;8.532;2023-02-26T09:28:24;2.00;99.90
23081;DHT22;11708;50.570;8.532;2023-02-26T09:30:54;2.20;99.90
23081;DHT22;11708;50.570;8.532;2023-02-26T09:33:20;2.40;99.90
23081;DHT22;11708;50.570;8.532;2023-02-26T09:35:50;2.20;99.90
23081;DHT22;11708;50.570;8.532;2023-02-26T09:38:16;2.30;99.90
23081;DHT22;11708;50.570;8.532;2023-02-26T09:40:49;2.50;99.90
23081;DHT22;11708;50.570;8.532;2023-02-26T09:43:24;2.60;99.90
23081;DHT22;11708;50.570;8.532;2023-02-26T09:45:51;2.70;99.90
23081;DHT22;11708;50.570;8.532;2023-02-26T09:48:20;2.80;99.90
23081;DHT22;11708;50.570;8.532;2023-02-26T09:50:52;2.80;99.90
23081;DHT22;11708;50.570;8.532;2023-02-26T09:53:30;2.80;99.90
23081;DHT22;11708;50.570;8.532;2023-02-26T09:56:03;2.90;99.90
23081;DHT22;11708;50.570;8.532;2023-02-26T09:58:32;2.90;99.90
23081;DHT22;11708;50.570;8.532;2023-02-26T10:06:26;3.30;99.90
23081;DHT22;11708;50.570;8.532;2023-02-26T10:09:13;3.40;99.90
23081;DHT22;11708;50.570;8.532;2023-02-26T10:11:52;3.20;99.90
23081;DHT22;11708;50.570;8.532;2023-02-26T10:15:29;3.40;99.90
23081;DHT22;11708;50.570;8.532;2023-02-26T10:25:21;3.10;99.90
23081;DHT22;11708;50.570;8.532;2023-02-26T10:28:05;3.00;99.90
23081;DHT22;11708;50.570;8.532;2023-02-26T10:30:41;3.00;99.90
23081;DHT22;11708;50.570;8.532;2023-02-26T10:33:21;2.90;99.90
23081;DHT22;11708;50.570;8.532;2023-02-26T10:35:53;2.90;99.90
23081;DHT22;11708;50.570;8.532;2023-02-26T10:38:29;2.90;99.90
23081;DHT22;11708;50.570;8.532;2023-02-26T10:40:59;2.90;99.90
23081;DHT22;11708;50.570;8.532;2023-02-26T11:07:26;3.20;99.90
23081;DHT22;11708;50.570;8.532;2023-02-26T11:09:54;3.20;99.90
23081;DHT22;11708;50.570;8.532;2023-02-26T11:12:20;3.10;99.90
23081;DHT22;11708;50.570;8.532;2023-02-26T11:14:53;3.20;99.90
23081;DHT22;11708;50.570;8.532;2023-02-26T11:17:25;3.10;99.90
23081;DHT22;11708;50.570;8.532;2023-02-26T11:19:58;3.20;99.90
23081;DHT22;11708;50.570;8.532;2023-02-26T11:22:28;3.20;99.90
23081;DHT22;11708;50.570;8.532;2023-02-26T11:24:55;3.30;99.90
23081;DHT22;11708;50.570;8.532;2023-02-26T11:27:26;3.40;99.90
23081;DHT22;11708;50.570;8.532;2023-02-26T11:29:59;3.40;99.90
23081;DHT22;11708;50.570;8.532;2023-02-26T11:32:36;3.50;99.90
23081;DHT22;11708;50.570;8.532;2023-02-26T11:35:02;3.60;99.90
23081;DHT22;11708;50.570;8.532;2023-02-26T11:37:39;3.70;99.90
23081;DHT22;11708;50.570;8.532;2023-02-26T11:40:17;3.80;99.90
23081;DHT22;11708;50.570;8.532;2023-02-26T11:42:53;3.90;99.90
23081;DHT22;11708;50.570;8.532;2023-02-26T11:45:20;4.10;99.90
23081;DHT22;11708;50.570;8.532;2023-02-26T11:47:48;4.30;99.90
23081;DHT22;11708;50.570;8.532;2023-02-26T11:50:18;4.40;99.90
23081;DHT22;11708;50.570;8.532;2023-02-26T11:52:53;4.60;99.90
23081;DHT22;11708;50.570;8.532;2023-02-26T11:55:21;4.80;99.90
23081;DHT22;11708;50.570;8.532;2023-02-26T11:57:52;5.10;99.90
23081;DHT22;11708;50.570;8.532;2023-02-26T12:00:38;5.50;99.90
23081;DHT22;11708;50.570;8.532;2023-02-26T12:03:13;5.70;99.90
23081;DHT22;11708;50.570;8.532;2023-02-26T12:05:40;5.80;99.90
23081;DHT22;11708;50.570;8.532;2023-02-26T12:19:28;4.70;99.90
23081;DHT22;11708;50.570;8.532;2023-02-26T12:22:02;4.60;99.90
23081;DHT22;11708;50.570;8.532;2023-02-26T12:27:10;4.40;99.90
23081;DHT22;11708;50.570;8.532;2023-02-26T12:35:30;4.30;99.90
23081;DHT22;11708;50.570;8.532;2023-02-26T12:49:10;4.10;99.90
23081;DHT22;11708;50.570;8.532;2023-02-26T12:54:21;4.00;99.90
23081;DHT22;11708;50.570;8.532;2023-02-26T13:03:05;3.90;99.90
23081;DHT22;11708;50.570;8.532;2023-02-26T13:05:57;3.80;99.90
23081;DHT22;11708;50.570;8.532;2023-02-26T13:10:58;3.70;99.90
23081;DHT22;11708;50.570;8.532;2023-02-26T13:21:37;3.80;99.90
23081;DHT22;11708;50.570;8.532;2023-02-26T13:26:35;3.90;99.90
23081;DHT22;11708;50.570;8.532;2023-02-26T13:29:25;4.00;99.90
23081;DHT22;11708;50.570;8.532;2023-02-26T13:31:54;4.10;99.90
23081;DHT22;11708;50.570;8.532;2023-02-26T13:34:32;4.20;99.90
23081;DHT22;11708;50.570;8.532;2023-02-26T13:36:59;4.20;99.90
23081;DHT22;11708;50.570;8.532;2023-02-26T13:59:23;4.80;99.90
23081;DHT22;11708;50.570;8.532;2023-02-26T14:01:54;4.90;99.90
23081;DHT22;11708;50.570;8.532;2023-02-26T14:07:06;5.40;99.90
23081;DHT22;11708;50.570;8.532;2023-02-26T14:10:00;6.20;99.90
23081;DHT22;11708;50.570;8.532;2023-02-26T14:12:43;6.30;99.90
23081;DHT22;11708;50.570;8.532;2023-02-26T14:17:40;6.40;99.90
23081;DHT22;11708;50.570;8.532;2023-02-26T14:20:34;6.40;99.90
23081;DHT22;11708;50.570;8.532;2023-02-26T14:23:15;6.10;99.90
23081;DHT22;11708;50.570;8.532;2023-02-26T14:25:47;5.80;99.90
23081;DHT22;11708;50.570;8.532;2023-02-26T14:28:32;5.60;99.90
23081;DHT22;11708;50.570;8.532;2023-02-26T14:38:59;4.90;99.90
23081;DHT22;11708;50.570;8.532;2023-02-26T14:41:29;5.00;99.90
23081;DHT22;11708;50.570;8.532;2023-02-26T14:44:17;5.50;99.90
23081;DHT22;11708;50.570;8.532;2023-02-26T14:46:45;6.00;99.90
23081;DHT22;11708;50.570;8.532;2023-02-26T14:49:26;6.10;99.90
23081;DHT22;11708;50.570;8.532;2023-02-26T14:52:24;6.00;99.90
23081;DHT22;11708;50.570;8.532;2023-02-26T15:24:46;8.10;99.90
23081;DHT22;11708;50.570;8.532;2023-02-26T15:27:16;8.00;99.90
23081;DHT22;11708;50.570;8.532;2023-02-26T15:29:46;7.80;99.90
23081;DHT22;11708;50.570;8.532;2023-02-26T15:32:17;7.80;99.90
23081;DHT22;11708;50.570;8.532;2023-02-26T15:34:48;7.80;98.80
23081;DHT22;11708;50.570;8.532;2023-02-26T15:37:21;7.50;98.30
23081;DHT22;11708;50.570;8.532;2023-02-26T15:39:49;7.30;98.70
23081;DHT22;11708;50.570;8.532;2023-02-26T15:42:20;6.90;99.10
23081;DHT22;11708;50.570;8.532;2023-02-26T15:44:47;6.70;99.90
23081;DHT22;11708;50.570;8.532;2023-02-26T15:47:17;6.80;99.90
23081;DHT22;11708;50.570;8.532;2023-02-26T15:49:45;6.90;99.90
23081;DHT22;11708;50.570;8.532;2023-02-26T15:52:14;6.90;99.90
23081;DHT22;11708;50.570;8.532;2023-02-26T15:54:49;7.00;99.90
23081;DHT22;11708;50.570;8.532;2023-02-26T15:57:17;7.00;99.90
23081;DHT22;11708;50.570;8.532;2023-02-26T15:59:50;7.00;99.90
23081;DHT22;11708;50.570;8.532;2023-02-26T16:02:28;6.80;99.90
23081;DHT22;11708;50.570;8.532;2023-02-26T16:04:56;6.60;99.90
23081;DHT22;11708;50.570;8.532;2023-02-26T16:07:22;6.50;99.90
23081;DHT22;11708;50.570;8.532;2023-02-26T16:09:50;6.20;99.90
23081;DHT22;11708;50.570;8.532;2023-02-26T16:12:34;6.00;99.90
23081;DHT22;11708;50.570;8.532;2023-02-26T16:15:08;5.80;99.90
23081;DHT22;11708;50.570;8.532;2023-02-26T16:17:42;5.80;99.90
23081;DHT22;11708;50.570;8.532;2023-02-26T16:20:20;5.70;99.90
23081;DHT22;11708;50.570;8.532;2023-02-26T16:22:48;5.60;99.90
23081;DHT22;11708;50.570;8.532;2023-02-26T16:28:19;5.20;99.90
23081;DHT22;11708;50.570;8.532;2023-02-26T16:30:48;5.30;99.90
23081;DHT22;11708;50.570;8.532;2023-02-26T16:33:17;4.90;99.90
23081;DHT22;11708;50.570;8.532;2023-02-26T16:35:46;4.80;99.90
23081;DHT22;11708;50.570;8.532;2023-02-26T16:38:23;4.60;99.90
23081;DHT22;11708;50.570;8.532;2023-02-26T16:41:19;4.80;99.90
23081;DHT22;11708;50.570;8.532;2023-02-26T16:46:16;4.30;99.90
23081;DHT22;11708;50.570;8.532;2023-02-26T16:48:54;4.20;99.90
23081;DHT22;11708;50.570;8.532;2023-02-26T16:51:26;4.10;99.90
23081;DHT22;11708;50.570;8.532;2023-02-26T16:53:59;4.00;99.90
23081;DHT22;11708;50.570;8.532;2023-02-26T16:56:30;3.80;99.90
23081;DHT22;11708;50.570;8.532;2023-02-26T16:59:13;3.70;99.90
23081;DHT22;11708;50.570;8.532;2023-02-26T17:04:22;3.50;99.90
23081;DHT22;11708;50.570;8.532;2023-02-26T17:06:49;3.40;99.90
23081;DHT22;11708;50.570;8.532;2023-02-26T17:12:15;3.30;99.90
23081;DHT22;11708;50.570;8.532;2023-02-26T17:14:46;3.20;99.90
23081;DHT22;11708;50.570;8.532;2023-02-26T17:17:32;3.10;99.90
23081;DHT22;11708;50.570;8.532;2023-02-26T17:19:57;3.10;99.90
23081;DHT22;11708;50.570;8.532;2023-02-26T17:22:26;3.00;99.90
23081;DHT22;11708;50.570;8.532;2023-02-26T17:24:51;3.00;99.90
23081;DHT22;11708;50.570;8.532;2023-02-26T17:27:30;3.00;99.90
23081;DHT22;11708;50.570;8.532;2023-02-26T17:29:57;2.90;99.90
23081;DHT22;11708;50.570;8.532;2023-02-26T17:32:26;2.90;99.90
23081;DHT22;11708;50.570;8.532;2023-02-26T17:34:52;2.90;99.90
23081;DHT22;11708;50.570;8.532;2023-02-26T17:37:18;2.80;99.90
23081;DHT22;11708;50.570;8.532;2023-02-26T17:39:45;2.80;99.90
23081;DHT22;11708;50.570;8.532;2023-02-26T17:42:13;2.70;99.90
23081;DHT22;11708;50.570;8.532;2023-02-26T17:44:40;2.70;99.90
23081;DHT22;11708;50.570;8.532;2023-02-26T17:47:08;2.60;99.90
23081;DHT22;11708;50.570;8.532;2023-02-26T17:49:33;2.60;99.90
23081;DHT22;11708;50.570;8.532;2023-02-26T17:51:59;2.60;99.90
23081;DHT22;11708;50.570;8.532;2023-02-26T17:54:25;2.50;99.90
23081;DHT22;11708;50.570;8.532;2023-02-26T17:56:50;2.40;99.90
23081;DHT22;11708;50.570;8.532;2023-02-26T17:59:16;2.40;99.90
23081;DHT22;11708;50.570;8.532;2023-02-26T18:01:41;2.30;99.90
23081;DHT22;11708;50.570;8.532;2023-02-26T18:04:07;2.30;99.90
23081;DHT22;11708;50.570;8.532;2023-02-26T18:06:35;2.20;99.90
23081;DHT22;11708;50.570;8.532;2023-02-26T18:09:02;2.10;99.90
23081;DHT22;11708;50.570;8.532;2023-02-26T18:11:30;2.00;99.90
23081;DHT22;11708;50.570;8.532;2023-02-26T18:13:57;1.90;99.90
23081;DHT22;11708;50.570;8.532;2023-02-26T18:16:28;1.90;99.90
23081;DHT22;11708;50.570;8.532;2023-02-26T18:18:56;1.80;99.90
23081;DHT22;11708;50.570;8.532;2023-02-26T18:21:23;1.70;99.90
23081;DHT22;11708;50.570;8.532;2023-02-26T18:23:53;1.70;99.90
23081;DHT22;11708;50.570;8.532;2023-02-26T18:26:22;1.60;99.90
23081;DHT22;11708;50.570;8.532;2023-02-26T18:28:48;1.60;99.90
23081;DHT22;11708;50.570;8.532;2023-02-26T18:31:16;1.50;99.90
23081;DHT22;11708;50.570;8.532;2023-02-26T18:33:41;1.50;99.90
23081;DHT22;11708;50.570;8.532;2023-02-26T18:36:16;1.50;99.90
23081;DHT22;11708;50.570;8.532;2023-02-26T18:38:43;1.60;99.90
23081;DHT22;11708;50.570;8.532;2023-02-26T18:41:08;1.60;99.90
23081;DHT22;11708;50.570;8.532;2023-02-26T18:43:34;1.60;99.90
23081;DHT22;11708;50.570;8.532;2023-02-26T18:46:00;1.60;99.90
23081;DHT22;11708;50.570;8.532;2023-02-26T18:48:26;1.60;99.90
23081;DHT22;11708;50.570;8.532;2023-02-26T18:50:52;2.00;99.90
23081;DHT22;11708;50.570;8.532;2023-02-26T18:53:20;1.60;99.90
23081;DHT22;11708;50.570;8.532;2023-02-26T18:55:52;1.60;99.90
23081;DHT22;11708;50.570;8.532;2023-02-26T18:58:18;1.60;99.90
23081;DHT22;11708;50.570;8.532;2023-02-26T19:00:44;1.30;99.90
23081;DHT22;11708;50.570;8.532;2023-02-26T19:03:10;1.50;99.90
23081;DHT22;11708;50.570;8.532;2023-02-26T19:05:36;1.50;99.90
23081;DHT22;11708;50.570;8.532;2023-02-26T19:08:02;1.50;99.90
23081;DHT22;11708;50.570;8.532;2023-02-26T19:10:28;1.40;99.90
23081;DHT22;11708;50.570;8.532;2023-02-26T19:12:56;1.40;99.90
23081;DHT22;11708;50.570;8.532;2023-02-26T19:15:22;1.30;99.90
23081;DHT22;11708;50.570;8.532;2023-02-26T19:17:49;1.20;99.90
23081;DHT22;11708;50.570;8.532;2023-02-26T19:20:15;1.20;99.90
23081;DHT22;11708;50.570;8.532;2023-02-26T19:22:41;1.10;99.90
23081;DHT22;11708;50.570;8.532;2023-02-26T19:25:08;1.10;99.90
23081;DHT22;11708;50.570;8.532;2023-02-26T19:30:00;1.00;99.90
23081;DHT22;11708;50.570;8.532;2023-02-26T19:32:27;1.00;99.90
23081;DHT22;11708;50.570;8.532;2023-02-26T19:34:53;1.10;99.90
23081;DHT22;11708;50.570;8.532;2023-02-26T19:37:18;1.10;99.90
23081;DHT22;11708;50.570;8.532;2023-02-26T19:39:44;1.00;99.90
23081;DHT22;11708;50.570;8.532;2023-02-26T19:42:10;0.90;99.90
23081;DHT22;11708;50.570;8.532;2023-02-26T19:44:35;0.90;99.90
23081;DHT22;11708;50.570;8.532;2023-02-26T19:47:01;0.90;99.90
23081;DHT22;11708;50.570;8.532;2023-02-26T19:49:27;0.80;99.90
23081;DHT22;11708;50.570;8.532;2023-02-26T19:51:53;0.80;99.90
23081;DHT22;11708;50.570;8.532;2023-02-26T19:54:19;0.80;99.90
23081;DHT22;11708;50.570;8.532;2023-02-26T19:56:45;0.70;99.90
23081;DHT22;11708;50.570;8.532;2023-02-26T19:59:11;0.70;99.90
23081;DHT22;11708;50.570;8.532;2023-02-26T20:01:38;0.70;99.90
23081;DHT22;11708;50.570;8.532;2023-02-26T20:04:03;0.60;99.90
23081;DHT22;11708;50.570;8.532;2023-02-26T20:06:29;0.60;99.90
23081;DHT22;11708;50.570;8.532;2023-02-26T20:08:54;0.60;99.90
23081;DHT22;11708;50.570;8.532;2023-02-26T20:11:20;0.50;99.90
23081;DHT22;11708;50.570;8.532;2023-02-26T20:13:46;0.50;99.90
23081;DHT22;11708;50.570;8.532;2023-02-26T20:16:12;0.50;99.90
23081;DHT22;11708;50.570;8.532;2023-02-26T20:18:38;0.40;99.90
23081;DHT22;11708;50.570;8.532;2023-02-26T20:21:07;0.40;99.90
23081;DHT22;11708;50.570;8.532;2023-02-26T20:23:35;0.60;99.90
23081;DHT22;11708;50.570;8.532;2023-02-26T20:26:04;0.50;99.90
23081;DHT22;11708;50.570;8.532;2023-02-26T20:28:30;0.50;99.90
23081;DHT22;11708;50.570;8.532;2023-02-26T20:30:56;0.50;99.90
23081;DHT22;11708;50.570;8.532;2023-02-26T20:33:22;0.50;99.90
23081;DHT22;11708;50.570;8.532;2023-02-26T20:35:47;0.50;99.90
23081;DHT22;11708;50.570;8.532;2023-02-26T20:38:16;0.40;99.90
23081;DHT22;11708;50.570;8.532;2023-02-26T20:40:42;0.00;99.90
23081;DHT22;11708;50.570;8.532;2023-02-26T20:43:08;0.30;99.90
23081;DHT22;11708;50.570;8.532;2023-02-26T20:45:36;0.20;99.90
23081;DHT22;11708;50.570;8.532;2023-02-26T20:48:03;0.10;99.90
23081;DHT22;11708;50.570;8.532;2023-02-26T20:50:28;0.10;99.90
23081;DHT22;11708;50.570;8.532;2023-02-26T20:52:54;0.10;99.90
23081;DHT22;11708;50.570;8.532;2023-02-26T20:55:19;0.00;99.90
23081;DHT22;11708;50.570;8.532;2023-02-26T20:57:45;0.00;99.90
23081;DHT22;11708;50.570;8.532;2023-02-26T21:00:11;0.00;99.90
23081;DHT22;11708;50.570;8.532;2023-02-26T21:02:40;0.00;99.90
23081;DHT22;11708;50.570;8.532;2023-02-26T21:05:06;-0.10;99.90
23081;DHT22;11708;50.570;8.532;2023-02-26T21:07:33;-0.10;99.90
23081;DHT22;11708;50.570;8.532;2023-02-26T21:09:59;-0.10;99.90
23081;DHT22;11708;50.570;8.532;2023-02-26T21:12:27;-0.10;99.90
23081;DHT22;11708;50.570;8.532;2023-02-26T21:14:54;-0.10;99.90